createdAt,value
2023-04-11T00:00:12.156Z,22.58
2023-04-11T00:01:14.610Z,20.65
2023-04-11T00:02:16.960Z,22.70
2023-04-11T00:03:20.305Z,21.05
2023-04-11T00:04:22.986Z,23.83
2023-04-11T00:05:26.439Z,24.13
2023-04-11T00:06:28.626Z,22.00
2023-04-11T00:07:30.894Z,20.42
2023-04-11T00:08:33.050Z,21.08
2023-04-11T00:09:35.752Z,23.27
2023-04-11T00:10:38.037Z,22.25
2023-04-11T00:11:40.189Z,22.25
2023-04-11T00:12:42.304Z,20.77
2023-04-11T00:13:45.410Z,21.42
2023-04-11T00:14:49.108Z,21.77
2023-04-11T00:15:55.166Z,22.25
2023-04-11T00:16:57.405Z,22.23
2023-04-11T00:17:59.643Z,23.02
2023-04-11T00:19:01.908Z,23.90
2023-04-11T00:20:07.781Z,23.52
2023-04-11T00:21:10.549Z,22.42
2023-04-11T00:22:13.888Z,23.15
2023-04-11T00:23:16.191Z,21.83
2023-04-11T00:24:18.440Z,21.38
2023-04-11T00:25:20.752Z,21.77
2023-04-11T00:26:22.975Z,21.65
2023-04-11T00:27:25.089Z,22.90
2023-04-11T00:28:27.455Z,22.38
2023-04-11T00:29:29.711Z,22.85
2023-04-11T00:30:32.013Z,22.90
2023-04-11T00:31:34.653Z,22.02
2023-04-11T00:32:36.990Z,21.30
2023-04-11T00:33:40.899Z,22.67
2023-04-11T00:34:43.211Z,21.50
2023-04-11T00:35:45.806Z,22.98
2023-04-11T00:36:48.697Z,21.25
2023-04-11T00:37:56.137Z,22.20
2023-04-11T00:38:58.611Z,20.70
2023-04-11T00:40:01.203Z,22.63
2023-04-11T00:41:03.388Z,22.60
2023-04-11T00:42:07.201Z,22.15
2023-04-11T00:43:09.589Z,23.15
2023-04-11T00:44:11.836Z,21.20
2023-04-11T00:45:14.096Z,22.20
2023-04-11T00:46:17.283Z,22.02
2023-04-11T00:47:19.776Z,20.60
2023-04-11T00:48:23.520Z,22.42
2023-04-11T00:49:26.162Z,22.88
2023-04-11T00:50:28.559Z,23.10
2023-04-11T00:51:30.884Z,23.77
2023-04-11T00:52:33.223Z,23.27
2023-04-11T00:53:37.063Z,24.15
2023-04-11T00:54:39.571Z,24.42
2023-04-11T00:55:41.822Z,23.60
2023-04-11T00:56:44.130Z,24.38
2023-04-11T00:57:46.462Z,23.92
2023-04-11T00:58:48.887Z,24.15
2023-04-11T00:59:51.627Z,23.13
2023-04-11T01:00:54.228Z,22.67
2023-04-11T01:01:57.305Z,22.52
2023-04-11T01:02:59.882Z,26.90
2023-04-11T01:04:02.581Z,25.08
2023-04-11T01:05:06.032Z,23.40
2023-04-11T01:06:09.646Z,22.60
2023-04-11T01:07:12.165Z,22.92
2023-04-11T01:08:14.827Z,22.42
2023-04-11T01:09:17.461Z,25.33
2023-04-11T01:10:19.658Z,26.02
2023-04-11T01:11:21.949Z,23.77
2023-04-11T01:12:24.240Z,24.15
2023-04-11T01:13:26.441Z,23.10
2023-04-11T01:14:29.003Z,24.15
2023-04-11T01:15:31.377Z,24.58
2023-04-11T01:16:33.677Z,23.13
2023-04-11T01:17:35.932Z,24.75
2023-04-11T01:18:38.145Z,22.67
2023-04-11T01:19:40.652Z,23.25
2023-04-11T01:20:42.920Z,23.85
2023-04-11T01:21:46.070Z,22.52
2023-04-11T01:22:49.506Z,23.38
2023-04-11T01:23:54.296Z,24.13
2023-04-11T01:25:58.497Z,23.40
2023-04-11T01:27:01.843Z,23.77
2023-04-11T01:28:04.148Z,22.02
2023-04-11T01:29:06.473Z,23.58
2023-04-11T01:30:09.191Z,24.48
2023-04-11T01:31:12.110Z,23.85
2023-04-11T01:32:14.360Z,23.13
2023-04-11T01:33:16.552Z,24.58
2023-04-11T01:34:19.185Z,22.70
2023-04-11T01:35:21.363Z,23.23
2023-04-11T01:36:23.579Z,23.27
2023-04-11T01:37:25.819Z,22.95
2023-04-11T01:38:27.916Z,25.15
2023-04-11T01:39:30.292Z,25.42
2023-04-11T01:40:35.479Z,24.77
2023-04-11T01:41:38.129Z,26.23
2023-04-11T01:42:40.463Z,25.50
2023-04-11T01:43:43.476Z,24.02
2023-04-11T01:44:46.020Z,24.52
2023-04-11T01:45:48.196Z,24.27
2023-04-11T01:46:51.280Z,26.90
2023-04-11T01:47:54.701Z,25.80
2023-04-11T01:48:58.319Z,25.58
2023-04-11T01:50:01.198Z,29.73
2023-04-11T01:51:03.619Z,26.33
2023-04-11T01:52:05.908Z,26.35
2023-04-11T01:53:08.082Z,24.42
2023-04-11T01:54:10.383Z,24.02
2023-04-11T01:55:12.523Z,24.50
2023-04-11T01:56:14.757Z,25.20
2023-04-11T01:57:17.212Z,26.20
2023-04-11T01:58:19.346Z,25.00
2023-04-11T01:59:21.474Z,24.75
2023-04-11T02:00:24.175Z,24.30
2023-04-11T02:01:26.773Z,24.00
2023-04-11T02:02:29.246Z,23.63
2023-04-11T02:03:31.887Z,24.75
2023-04-11T02:04:34.125Z,23.27
2023-04-11T02:05:36.323Z,24.35
2023-04-11T02:06:38.777Z,23.35
2023-04-11T02:07:41.255Z,23.85
2023-04-11T02:08:43.966Z,24.13
2023-04-11T02:09:46.205Z,23.70
2023-04-11T02:10:48.276Z,24.15
2023-04-11T02:11:50.429Z,24.52
2023-04-11T02:12:52.609Z,23.88
2023-04-11T02:13:54.844Z,25.92
2023-04-11T02:14:57.040Z,24.10
2023-04-11T02:16:06.165Z,24.92
2023-04-11T02:17:10.044Z,24.88
2023-04-11T02:18:12.368Z,24.95
2023-04-11T02:19:14.511Z,26.67
2023-04-11T02:20:16.934Z,24.55
2023-04-11T02:21:19.053Z,24.75
2023-04-11T02:22:21.178Z,23.55
2023-04-11T02:23:24.167Z,23.77
2023-04-11T02:24:28.363Z,23.15
2023-04-11T02:25:31.334Z,23.70
2023-04-11T02:26:33.449Z,25.10
2023-04-11T02:27:35.788Z,25.10
2023-04-11T02:28:37.953Z,23.45
2023-04-11T02:29:40.077Z,23.05
2023-04-11T02:30:42.308Z,23.77
2023-04-11T02:31:44.571Z,22.92
2023-04-11T02:32:49.477Z,25.25
2023-04-11T02:33:51.770Z,24.95
2023-04-11T02:34:54.063Z,24.42
2023-04-11T02:35:56.255Z,24.77
2023-04-11T02:36:58.390Z,23.75
2023-04-11T02:38:00.718Z,24.90
2023-04-11T02:39:02.968Z,23.25
2023-04-11T02:40:05.765Z,24.13
2023-04-11T02:41:08.555Z,23.98
2023-04-11T02:42:12.660Z,22.05
2023-04-11T02:43:15.929Z,23.67
2023-04-11T02:44:19.200Z,25.15
2023-04-11T02:45:21.919Z,22.98
2023-04-11T02:46:24.116Z,25.65
2023-04-11T02:47:26.402Z,23.23
2023-04-11T02:48:28.592Z,23.50
2023-04-11T02:49:30.744Z,26.70
2023-04-11T02:50:32.942Z,23.52
2023-04-11T02:51:35.149Z,23.92
2023-04-11T02:52:39.375Z,24.70
2023-04-11T02:53:41.562Z,24.63
2023-04-11T02:54:44.070Z,24.50
2023-04-11T02:55:46.710Z,21.98
2023-04-11T02:56:48.913Z,23.02
2023-04-11T02:57:51.364Z,22.73
2023-04-11T02:58:53.606Z,22.27
2023-04-11T02:59:55.878Z,21.98
2023-04-11T03:00:58.039Z,23.33
2023-04-11T03:02:01.319Z,22.40
2023-04-11T03:03:03.858Z,22.35
2023-04-11T03:04:07.423Z,25.05
2023-04-11T03:05:09.842Z,23.45
2023-04-11T03:06:12.108Z,24.67
2023-04-11T03:07:14.255Z,25.35
2023-04-11T03:08:16.422Z,24.60
2023-04-11T03:09:19.499Z,26.83
2023-04-11T03:10:21.757Z,24.17
2023-04-11T03:11:23.931Z,25.45
2023-04-11T03:12:26.473Z,27.05
2023-04-11T03:13:28.922Z,25.67
2023-04-11T03:14:31.128Z,25.85
2023-04-11T03:15:33.326Z,24.00
2023-04-11T03:16:35.835Z,25.48
2023-04-11T03:17:38.076Z,24.58
2023-04-11T03:18:40.270Z,26.00
2023-04-11T03:19:42.396Z,25.85
2023-04-11T03:20:44.972Z,24.20
2023-04-11T03:21:47.127Z,25.92
2023-04-11T03:22:49.559Z,24.13
2023-04-11T03:23:51.953Z,23.50
2023-04-11T03:24:54.111Z,23.45
2023-04-11T03:25:56.599Z,24.73
2023-04-11T03:26:58.852Z,23.42
2023-04-11T03:28:01.724Z,26.65
2023-04-11T03:29:03.970Z,26.45
2023-04-11T03:30:06.811Z,25.65
2023-04-11T03:31:09.005Z,25.08
2023-04-11T03:32:11.241Z,26.75
2023-04-11T03:33:13.548Z,26.42
2023-04-11T03:34:16.112Z,27.05
2023-04-11T03:35:20.517Z,25.73
2023-04-11T03:36:23.138Z,24.90
2023-04-11T03:37:25.379Z,26.20
2023-04-11T03:38:27.549Z,26.13
2023-04-11T03:39:29.747Z,26.05
2023-04-11T03:40:31.929Z,25.63
2023-04-11T03:41:34.077Z,25.83
2023-04-11T03:42:36.522Z,24.08
2023-04-11T03:43:38.706Z,24.38
2023-04-11T03:44:41.072Z,23.88
2023-04-11T03:45:43.361Z,24.60
2023-04-11T03:46:45.611Z,24.92
2023-04-11T03:47:48.146Z,24.55
2023-04-11T03:48:50.565Z,21.25
2023-04-11T03:49:52.765Z,23.90
2023-04-11T03:50:55.588Z,22.58
2023-04-11T03:51:57.994Z,22.48
2023-04-11T03:53:00.240Z,22.13
2023-04-11T03:54:02.377Z,22.90
2023-04-11T03:55:06.170Z,23.17
2023-04-11T03:56:09.132Z,23.00
2023-04-11T03:57:11.831Z,23.67
2023-04-11T03:58:13.934Z,24.08
2023-04-11T03:59:16.079Z,24.45
2023-04-11T04:00:20.114Z,23.27
2023-04-11T04:01:22.346Z,24.02
2023-04-11T04:02:24.675Z,25.00
2023-04-11T04:03:27.356Z,23.63
2023-04-11T04:04:30.243Z,23.98
2023-04-11T04:05:32.595Z,24.15
2023-04-11T04:06:35.837Z,23.02
2023-04-11T04:07:38.145Z,24.30
2023-04-11T04:08:40.898Z,23.80
2023-04-11T04:09:43.153Z,24.45
2023-04-11T04:10:47.084Z,23.63
2023-04-11T04:11:49.222Z,24.35
2023-04-11T04:12:53.934Z,23.38
2023-04-11T04:13:56.461Z,21.95
2023-04-11T04:14:58.826Z,24.95
2023-04-11T04:16:03.472Z,23.73
2023-04-11T04:17:06.004Z,21.90
2023-04-11T04:18:08.266Z,21.80
2023-04-11T04:19:10.679Z,22.17
2023-04-11T04:20:12.990Z,22.88
2023-04-11T04:21:15.616Z,24.42
2023-04-11T04:22:17.950Z,22.85
2023-04-11T04:23:23.918Z,23.92
2023-04-11T04:24:26.217Z,22.67
2023-04-11T04:25:28.420Z,22.55
2023-04-11T04:26:31.473Z,23.20
2023-04-11T04:27:33.659Z,23.27
2023-04-11T04:28:35.818Z,22.38
2023-04-11T04:29:38.811Z,23.08
2023-04-11T04:30:41.632Z,23.92
2023-04-11T04:31:44.577Z,27.20
2023-04-11T04:32:46.784Z,25.63
2023-04-11T04:33:49.578Z,24.75
2023-04-11T04:34:55.477Z,23.40
2023-04-11T04:36:00.255Z,23.08
2023-04-11T04:37:02.678Z,24.85
2023-04-11T04:38:06.494Z,23.20
2023-04-11T04:39:09.983Z,24.52
2023-04-11T04:40:14.046Z,25.77
2023-04-11T04:41:16.246Z,28.42
2023-04-11T04:42:18.502Z,27.75
2023-04-11T04:43:23.059Z,27.25
2023-04-11T04:44:25.365Z,26.65
2023-04-11T04:45:27.651Z,26.70
2023-04-11T04:46:36.736Z,27.38
2023-04-11T04:47:39.019Z,27.67
2023-04-11T04:48:41.451Z,27.73
2023-04-11T04:49:44.365Z,30.63
2023-04-11T04:50:46.533Z,28.88
2023-04-11T04:51:48.944Z,28.05
2023-04-11T04:52:51.205Z,29.65
2023-04-11T04:53:53.409Z,28.60
2023-04-11T04:54:58.096Z,28.23
2023-04-11T04:57:03.722Z,26.25
2023-04-11T04:58:05.920Z,28.00
2023-04-11T04:59:08.392Z,26.13
2023-04-11T05:00:11.866Z,27.38
2023-04-11T05:01:14.142Z,27.92
2023-04-11T05:02:17.441Z,26.85
2023-04-11T05:03:21.081Z,26.35
2023-04-11T05:04:23.627Z,25.08
2023-04-11T05:05:26.062Z,26.10
2023-04-11T05:06:30.114Z,27.40
2023-04-11T05:07:32.305Z,25.92
2023-04-11T05:08:34.463Z,25.90
2023-04-11T05:09:37.064Z,25.98
2023-04-11T05:10:39.184Z,25.75
2023-04-11T05:11:41.343Z,26.75
2023-04-11T05:12:43.649Z,25.75
2023-04-11T05:13:45.992Z,26.70
2023-04-11T05:14:48.297Z,25.98
2023-04-11T05:15:51.256Z,27.40
2023-04-11T05:16:53.527Z,28.63
2023-04-11T05:17:55.733Z,28.23
2023-04-11T05:18:59.304Z,26.33
2023-04-11T05:20:01.458Z,26.15
2023-04-11T05:21:05.379Z,26.38
2023-04-11T05:22:07.581Z,26.00
2023-04-11T05:23:09.847Z,26.30
2023-04-11T05:24:12.111Z,25.52
2023-04-11T05:25:14.286Z,25.50
2023-04-11T05:26:16.733Z,23.40
2023-04-11T05:27:19.430Z,21.95
2023-04-11T05:28:21.608Z,21.80
2023-04-11T05:29:23.850Z,21.98
2023-04-11T05:30:26.221Z,21.75
2023-04-11T05:31:29.093Z,24.35
2023-04-11T05:32:31.234Z,22.70
2023-04-11T05:33:33.438Z,24.27
2023-04-11T05:34:51.158Z,23.85
2023-04-11T05:35:53.421Z,22.33
2023-04-11T05:36:55.702Z,22.45
2023-04-11T05:37:58.403Z,21.48
2023-04-11T05:39:01.079Z,22.75
2023-04-11T05:40:03.923Z,23.10
2023-04-11T05:41:06.393Z,22.55
2023-04-11T05:42:08.531Z,25.15
2023-04-11T05:43:15.209Z,23.27
2023-04-11T05:44:17.371Z,25.05
2023-04-11T05:45:19.880Z,22.48
2023-04-11T05:46:22.226Z,22.90
2023-04-11T05:47:24.433Z,23.40
2023-04-11T05:48:26.606Z,22.52
2023-04-11T05:49:28.774Z,22.90
2023-04-11T05:50:31.045Z,22.33
2023-04-11T05:51:33.226Z,21.23
2023-04-11T05:52:35.412Z,23.80
2023-04-11T05:53:37.675Z,24.27
2023-04-11T05:54:39.873Z,22.27
2023-04-11T05:55:41.980Z,19.95
2023-04-11T05:56:44.181Z,21.38
2023-04-11T05:57:46.392Z,22.42
2023-04-11T05:58:48.600Z,20.83
2023-04-11T05:59:53.005Z,22.33
2023-04-11T06:00:55.787Z,21.17
2023-04-11T06:01:58.885Z,22.05
2023-04-11T06:03:01.920Z,22.50
2023-04-11T06:04:04.478Z,23.02
2023-04-11T06:05:07.333Z,21.40
2023-04-11T06:06:09.553Z,22.20
2023-04-11T06:07:11.908Z,21.58
2023-04-11T06:08:14.244Z,23.83
2023-04-11T06:09:18.072Z,22.08
2023-04-11T06:10:20.445Z,22.00
2023-04-11T06:11:22.609Z,20.77
2023-04-11T06:12:24.715Z,21.95
2023-04-11T06:13:26.891Z,21.95
2023-04-11T06:14:29.062Z,22.52
2023-04-11T06:15:31.336Z,22.85
2023-04-11T06:16:35.550Z,22.83
2023-04-11T06:17:38.328Z,23.83
2023-04-11T06:18:40.551Z,23.85
2023-04-11T06:19:42.712Z,22.75
2023-04-11T06:20:46.404Z,21.27
2023-04-11T06:21:48.568Z,21.13
2023-04-11T06:22:53.908Z,21.88
2023-04-11T06:23:56.895Z,21.15
2023-04-11T06:24:59.208Z,22.25
2023-04-11T06:26:01.513Z,22.58
2023-04-11T06:27:03.971Z,20.73
2023-04-11T06:28:06.137Z,23.50
2023-04-11T06:29:08.384Z,20.58
2023-04-11T06:30:10.824Z,20.33
2023-04-11T06:31:13.024Z,20.42
2023-04-11T06:32:15.380Z,21.42
2023-04-11T06:33:17.580Z,22.55
2023-04-11T06:34:19.700Z,20.60
2023-04-11T06:35:24.917Z,22.13
2023-04-11T06:36:27.528Z,22.83
2023-04-11T06:37:29.683Z,22.13
2023-04-11T06:38:32.037Z,22.10
2023-04-11T06:39:34.856Z,21.90
2023-04-11T06:40:36.971Z,22.58
2023-04-11T06:41:39.128Z,21.55
2023-04-11T06:42:42.286Z,21.27
2023-04-11T06:43:44.610Z,22.23
2023-04-11T06:44:46.778Z,23.45
2023-04-11T06:45:49.724Z,21.25
2023-04-11T06:46:51.941Z,22.00
2023-04-11T06:47:54.285Z,24.60
2023-04-11T06:48:56.527Z,21.98
2023-04-11T06:49:59.364Z,22.75
2023-04-11T06:51:01.503Z,22.67
2023-04-11T06:52:03.710Z,21.50
2023-04-11T06:53:05.873Z,21.23
2023-04-11T06:54:08.132Z,22.20
2023-04-11T06:55:12.199Z,23.88
2023-04-11T06:56:14.356Z,23.52
2023-04-11T06:57:17.915Z,22.55
2023-04-11T06:58:20.115Z,22.80
2023-04-11T06:59:22.651Z,21.52
2023-04-11T07:00:26.475Z,22.38
2023-04-11T07:01:35.550Z,20.80
2023-04-11T07:02:39.373Z,23.35
2023-04-11T07:03:41.979Z,22.85
2023-04-11T07:04:44.525Z,22.73
2023-04-11T07:05:47.282Z,21.80
2023-04-11T07:06:49.411Z,21.40
2023-04-11T07:07:51.609Z,22.10
2023-04-11T07:08:53.859Z,22.52
2023-04-11T07:09:56.027Z,22.55
2023-04-11T07:10:58.160Z,24.02
2023-04-11T07:12:01.384Z,21.33
2023-04-11T07:13:03.551Z,22.73
2023-04-11T07:14:05.812Z,20.98
2023-04-11T07:15:09.039Z,21.95
2023-04-11T07:16:11.340Z,22.88
2023-04-11T07:17:13.598Z,22.50
2023-04-11T07:18:15.763Z,22.55
2023-04-11T07:19:17.934Z,22.35
2023-04-11T07:20:20.142Z,21.80
2023-04-11T07:21:22.317Z,20.70
2023-04-11T07:22:24.447Z,22.00
2023-04-11T07:23:26.552Z,21.63
2023-04-11T07:24:30.635Z,22.88
2023-04-11T07:25:33.892Z,20.95
2023-04-11T07:26:38.622Z,21.92
2023-04-11T07:27:43.909Z,20.90
2023-04-11T07:28:47.564Z,21.02
2023-04-11T07:29:49.887Z,21.10
2023-04-11T07:30:52.173Z,22.63
2023-04-11T07:31:54.590Z,21.33
2023-04-11T07:32:56.794Z,19.10
2023-04-11T07:33:59.083Z,16.38
2023-04-11T07:35:01.357Z,16.55
2023-04-11T07:36:04.708Z,16.65
2023-04-11T07:37:07.214Z,16.25
2023-04-11T07:38:10.333Z,17.00
2023-04-11T07:39:16.000Z,14.90
2023-04-11T07:40:26.011Z,16.60
2023-04-11T07:41:28.319Z,16.92
2023-04-11T07:42:30.679Z,18.27
2023-04-11T07:43:33.524Z,16.15
2023-04-11T07:44:35.771Z,17.13
2023-04-11T07:45:39.459Z,17.27
2023-04-11T07:46:41.696Z,16.20
2023-04-11T07:47:43.849Z,15.32
2023-04-11T07:48:46.024Z,16.00
2023-04-11T07:49:48.171Z,16.35
2023-04-11T07:50:50.344Z,15.70
2023-04-11T07:51:54.801Z,15.00
2023-04-11T07:52:57.642Z,12.82
2023-04-11T07:54:00.152Z,12.45
2023-04-11T07:55:03.024Z,12.52
2023-04-11T07:56:05.417Z,11.95
2023-04-11T07:57:07.558Z,12.50
2023-04-11T07:58:09.690Z,14.15
2023-04-11T07:59:16.039Z,12.95
2023-04-11T08:00:22.992Z,13.10
2023-04-11T08:01:27.093Z,13.75
2023-04-11T08:02:29.442Z,13.27
2023-04-11T08:03:32.151Z,12.77
2023-04-11T08:04:35.253Z,12.63
2023-04-11T08:05:37.758Z,13.75
2023-04-11T08:06:39.984Z,12.85
2023-04-11T08:07:42.240Z,12.77
2023-04-11T08:08:45.132Z,14.63
2023-04-11T08:09:47.348Z,15.82
2023-04-11T08:10:51.929Z,14.95
2023-04-11T08:11:54.977Z,13.63
2023-04-11T08:12:58.742Z,14.77
2023-04-11T08:14:01.003Z,15.27
2023-04-11T08:15:03.397Z,14.55
2023-04-11T08:16:10.518Z,14.57
2023-04-11T08:17:27.121Z,15.13
2023-04-11T08:18:31.346Z,15.65
2023-04-11T08:19:34.351Z,16.58
2023-04-11T08:20:36.685Z,16.45
2023-04-11T08:21:38.759Z,17.50
2023-04-11T08:22:44.519Z,17.67
2023-04-11T08:23:47.375Z,16.55
2023-04-11T08:24:49.666Z,17.02
2023-04-11T08:25:52.236Z,17.30
2023-04-11T08:26:54.459Z,16.02
2023-04-11T08:27:56.617Z,16.85
2023-04-11T08:28:58.744Z,15.38
2023-04-11T08:30:00.917Z,15.55
2023-04-11T08:31:05.069Z,14.80
2023-04-11T08:32:07.296Z,13.85
2023-04-11T08:33:10.314Z,14.80
2023-04-11T08:34:13.126Z,12.93
2023-04-11T08:35:15.407Z,12.20
2023-04-11T08:36:17.665Z,12.50
2023-04-11T08:37:19.893Z,12.07
2023-04-11T08:38:22.068Z,11.98
2023-04-11T08:39:24.251Z,12.77
2023-04-11T08:40:27.098Z,10.95
2023-04-11T08:41:30.846Z,11.52
2023-04-11T08:42:33.906Z,11.65
2023-04-11T08:43:37.787Z,12.52
2023-04-11T08:44:39.926Z,11.48
2023-04-11T08:45:42.546Z,11.88
2023-04-11T08:46:45.016Z,11.30
2023-04-11T08:47:47.170Z,12.70
2023-04-11T08:48:49.863Z,11.85
2023-04-11T08:49:52.953Z,11.75
2023-04-11T08:50:55.039Z,10.95
2023-04-11T08:51:57.289Z,11.35
2023-04-11T08:53:02.719Z,12.60
2023-04-11T08:54:05.886Z,12.88
2023-04-11T08:55:08.520Z,12.43
2023-04-11T08:56:19.263Z,12.85
2023-04-11T08:57:25.833Z,10.85
2023-04-11T08:58:28.552Z,10.38
2023-04-11T08:59:33.135Z,11.48
2023-04-11T09:00:35.310Z,11.65
2023-04-11T09:01:37.693Z,11.40
2023-04-11T09:02:56.827Z,11.30
2023-04-11T09:04:00.509Z,10.30
2023-04-11T09:05:02.824Z,10.98
2023-04-11T09:06:10.808Z,11.10
2023-04-11T09:07:14.036Z,12.27
2023-04-11T09:08:17.158Z,12.48
2023-04-11T09:09:29.916Z,13.32
2023-04-11T09:10:32.361Z,12.43
2023-04-11T09:11:54.846Z,14.27
2023-04-11T09:12:57.725Z,12.57
2023-04-11T09:14:07.569Z,13.15
2023-04-11T09:15:24.241Z,13.00
2023-04-11T09:16:26.394Z,12.95
2023-04-11T09:17:40.757Z,11.50
2023-04-11T09:18:44.931Z,13.25
2023-04-11T09:19:49.210Z,12.93
2023-04-11T09:22:06.107Z,13.13
2023-04-11T09:23:22.098Z,13.25
2023-04-11T09:24:26.039Z,14.63
2023-04-11T09:25:28.214Z,13.82
2023-04-11T09:26:30.479Z,14.75
2023-04-11T09:27:32.799Z,13.45
2023-04-11T09:28:52.348Z,13.30
2023-04-11T09:29:54.541Z,13.27
2023-04-11T09:30:58.075Z,13.13
2023-04-11T09:32:00.262Z,13.73
2023-04-11T09:33:22.603Z,13.98
2023-04-11T09:34:27.384Z,15.43
2023-04-11T09:36:31.661Z,14.70
2023-04-11T09:37:44.578Z,13.85
2023-04-11T09:38:46.830Z,13.73
2023-04-11T09:39:59.160Z,13.43
2023-04-11T09:41:02.500Z,13.68
2023-04-11T09:42:23.440Z,13.80
2023-04-11T09:43:25.832Z,14.30
2023-04-11T09:44:46.036Z,13.77
2023-04-11T09:45:54.544Z,14.68
2023-04-11T09:46:58.279Z,14.63
2023-04-11T09:48:00.508Z,14.13
2023-04-11T09:49:03.207Z,13.13
2023-04-11T09:50:06.211Z,13.88
2023-04-11T09:51:09.197Z,14.02
2023-04-11T09:52:11.711Z,13.05
2023-04-11T09:53:14.038Z,13.27
2023-04-11T09:54:16.414Z,13.60
2023-04-11T09:55:20.373Z,12.68
2023-04-11T09:56:24.123Z,13.80
2023-04-11T09:57:27.174Z,13.77
2023-04-11T09:58:33.466Z,11.57
2023-04-11T09:59:36.026Z,14.48
2023-04-11T10:00:41.043Z,13.77
2023-04-11T10:01:43.597Z,13.65
2023-04-11T10:02:55.861Z,15.63
2023-04-11T10:03:58.709Z,13.43
2023-04-11T10:05:04.360Z,14.10
2023-04-11T10:06:18.361Z,13.93
2023-04-11T10:07:21.248Z,13.43
2023-04-11T10:08:32.773Z,13.00
2023-04-11T10:09:38.928Z,14.45
2023-04-11T10:10:43.016Z,12.23
2023-04-11T10:11:46.122Z,14.45
2023-04-11T10:12:49.224Z,14.25
2023-04-11T10:13:51.625Z,14.00
2023-04-11T10:14:56.554Z,14.73
2023-04-11T10:16:18.618Z,14.75
2023-04-11T10:17:23.313Z,15.57
2023-04-11T10:18:26.630Z,14.90
2023-04-11T10:19:28.764Z,14.75
2023-04-11T10:20:50.417Z,15.95
2023-04-11T10:21:52.631Z,15.63
2023-04-11T10:22:58.894Z,15.63
2023-04-11T10:24:17.541Z,17.08
2023-04-11T10:25:21.389Z,17.42
2023-04-11T10:26:46.662Z,16.73
2023-04-11T10:27:49.545Z,15.60
2023-04-11T10:28:51.904Z,15.80
2023-04-11T10:29:54.221Z,15.90
2023-04-11T10:31:00.737Z,16.73
2023-04-11T10:32:14.773Z,15.38
2023-04-11T10:33:20.901Z,14.15
2023-04-11T10:34:23.011Z,15.43
2023-04-11T10:35:25.355Z,16.30
2023-04-11T10:36:27.685Z,13.90
2023-04-11T10:37:29.776Z,14.57
2023-04-11T10:38:43.733Z,15.65
2023-04-11T10:39:51.748Z,13.40
2023-04-11T10:41:16.038Z,13.98
2023-04-11T10:42:27.694Z,14.07
2023-04-11T10:43:29.923Z,16.25
2023-04-11T10:44:32.144Z,15.07
2023-04-11T10:45:39.896Z,14.15
2023-04-11T10:46:49.440Z,14.73
2023-04-11T10:47:51.727Z,14.73
2023-04-11T10:49:04.328Z,14.38
2023-04-11T10:50:31.473Z,14.38
2023-04-11T10:51:34.356Z,13.93
2023-04-11T10:52:38.265Z,14.13
2023-04-11T10:53:41.119Z,14.40
2023-04-11T10:54:44.593Z,14.88
2023-04-11T10:55:48.903Z,14.00
2023-04-11T10:56:54.830Z,14.38
2023-04-11T10:58:09.726Z,16.75
2023-04-11T10:59:34.456Z,15.57
2023-04-11T11:00:51.931Z,14.00
2023-04-11T11:02:01.814Z,14.73
2023-04-11T11:03:04.286Z,14.88
2023-04-11T11:04:07.243Z,14.43
2023-04-11T11:05:17.329Z,14.88
2023-04-11T11:06:20.862Z,13.65
2023-04-11T11:07:22.960Z,15.75
2023-04-11T11:08:33.284Z,15.98
2023-04-11T11:09:35.863Z,15.30
2023-04-11T11:10:48.335Z,15.82
2023-04-11T11:12:16.728Z,15.10
2023-04-11T11:13:18.814Z,16.42
2023-04-11T11:14:30.539Z,14.77
2023-04-11T11:15:37.970Z,14.25
2023-04-11T11:16:41.058Z,15.77
2023-04-11T11:17:43.686Z,15.90
2023-04-11T11:18:59.144Z,14.85
2023-04-11T11:20:01.670Z,16.60
2023-04-11T11:21:04.749Z,17.85
2023-04-11T11:22:17.157Z,16.17
2023-04-11T11:23:19.249Z,15.52
2023-04-11T11:24:25.412Z,15.13
2023-04-11T11:25:27.606Z,14.65
2023-04-11T11:26:36.816Z,14.93
2023-04-11T11:27:38.968Z,14.00
2023-04-11T11:28:48.495Z,15.10
2023-04-11T11:29:51.156Z,14.73
2023-04-11T11:30:55.838Z,15.02
2023-04-11T11:31:58.703Z,15.45
2023-04-11T11:33:14.956Z,16.13
2023-04-11T11:34:27.276Z,15.25
2023-04-11T11:35:29.477Z,15.32
2023-04-11T11:36:34.499Z,15.88
2023-04-11T11:37:36.744Z,16.00
2023-04-11T11:38:38.822Z,16.77
2023-04-11T11:39:40.986Z,15.73
2023-04-11T11:40:43.227Z,15.60
2023-04-11T11:41:45.965Z,15.20
2023-04-11T11:42:49.843Z,15.63
2023-04-11T11:43:51.927Z,14.55
2023-04-11T11:44:54.133Z,14.07
2023-04-11T11:46:14.637Z,14.32
2023-04-11T11:47:17.108Z,15.13
2023-04-11T11:48:25.534Z,15.68
2023-04-11T11:49:27.744Z,18.33
2023-04-11T11:50:31.448Z,15.30
2023-04-11T11:51:44.355Z,14.63
2023-04-11T11:52:48.786Z,14.60
2023-04-11T11:54:10.223Z,14.05
2023-04-11T11:55:18.418Z,13.40
2023-04-11T11:56:22.100Z,13.80
2023-04-11T11:57:24.199Z,12.77
2023-04-11T11:58:27.377Z,12.38
2023-04-11T11:59:29.580Z,12.57
2023-04-11T12:00:39.315Z,13.13
2023-04-11T12:01:43.360Z,12.38
2023-04-11T12:02:46.215Z,12.25
2023-04-11T12:03:51.646Z,12.88
2023-04-11T12:05:00.880Z,12.85
2023-04-11T12:06:03.141Z,12.93
2023-04-11T12:07:09.605Z,14.07
2023-04-11T12:08:12.074Z,12.45
2023-04-11T12:09:14.273Z,13.13
2023-04-11T12:10:17.460Z,13.10
2023-04-11T12:11:19.629Z,13.00
2023-04-11T12:12:21.754Z,12.93
2023-04-11T12:13:27.216Z,13.38
2023-04-11T12:14:29.605Z,12.65
2023-04-11T12:15:35.581Z,14.10
2023-04-11T12:16:38.334Z,13.65
2023-04-11T12:17:41.067Z,13.70
2023-04-11T12:18:43.841Z,12.05
2023-04-11T12:19:45.992Z,11.40
2023-04-11T12:20:48.450Z,13.55
2023-04-11T12:21:50.638Z,11.98
2023-04-11T12:22:54.592Z,11.77
2023-04-11T12:23:57.993Z,13.93
2023-04-11T12:25:11.440Z,12.48
2023-04-11T12:26:13.813Z,12.05
2023-04-11T12:27:16.267Z,11.65
2023-04-11T12:28:18.502Z,11.32
2023-04-11T12:29:20.663Z,11.52
2023-04-11T12:30:22.913Z,10.95
2023-04-11T12:31:25.831Z,10.60
2023-04-11T12:32:28.176Z,10.52
2023-04-11T12:33:30.647Z,12.68
2023-04-11T12:34:32.783Z,11.15
2023-04-11T12:35:34.926Z,11.00
2023-04-11T12:36:37.142Z,12.15
2023-04-11T12:37:39.342Z,10.82
2023-04-11T12:38:42.290Z,10.32
2023-04-11T12:39:44.422Z,10.50
2023-04-11T12:40:46.938Z,10.60
2023-04-11T12:41:49.046Z,10.30
2023-04-11T12:42:56.754Z,10.02
2023-04-11T12:44:02.227Z,9.65
2023-04-11T12:45:08.560Z,11.05
2023-04-11T12:46:11.654Z,11.75
2023-04-11T12:47:13.916Z,11.25
2023-04-11T12:48:16.077Z,11.82
2023-04-11T12:49:18.234Z,11.48
2023-04-11T12:50:23.218Z,10.63
2023-04-11T12:51:25.565Z,10.60
2023-04-11T12:52:28.486Z,12.10
2023-04-11T12:53:30.612Z,11.50
2023-04-11T12:54:33.542Z,11.65
2023-04-11T12:55:35.808Z,10.60
2023-04-11T12:56:38.404Z,12.75
2023-04-11T12:57:41.566Z,11.80
2023-04-11T12:58:44.992Z,10.90
2023-04-11T12:59:47.244Z,10.65
2023-04-11T13:00:49.434Z,10.18
2023-04-11T13:01:51.664Z,10.60
2023-04-11T13:02:54.696Z,10.10
2023-04-11T13:03:57.366Z,10.13
2023-04-11T13:05:02.625Z,9.60
2023-04-11T13:06:05.094Z,10.48
2023-04-11T13:07:07.206Z,11.57
2023-04-11T13:08:09.689Z,9.93
2023-04-11T13:09:12.570Z,10.07
2023-04-11T13:10:18.314Z,10.57
2023-04-11T13:11:20.415Z,10.02
2023-04-11T13:12:22.565Z,10.20
2023-04-11T13:13:24.771Z,11.40
2023-04-11T13:14:26.881Z,10.60
2023-04-11T13:15:29.047Z,10.75
2023-04-11T13:16:32.324Z,9.65
2023-04-11T13:17:35.174Z,9.38
2023-04-11T13:18:37.376Z,9.55
2023-04-11T13:19:39.443Z,9.82
2023-04-11T13:20:42.674Z,10.82
2023-04-11T13:21:44.806Z,10.23
2023-04-11T13:22:46.929Z,9.90
2023-04-11T13:23:49.005Z,10.65
2023-04-11T13:24:51.247Z,9.85
2023-04-11T13:25:53.318Z,9.18
2023-04-11T13:26:55.462Z,10.43
2023-04-11T13:27:57.884Z,9.68
2023-04-11T13:29:00.012Z,9.45
2023-04-11T13:30:04.706Z,10.20
2023-04-11T13:31:10.431Z,10.50
2023-04-11T13:32:12.598Z,9.55
2023-04-11T13:33:14.728Z,9.60
2023-04-11T13:34:17.071Z,9.48
2023-04-11T13:35:19.213Z,10.23
2023-04-11T13:36:21.440Z,9.00
2023-04-11T13:37:23.587Z,8.95
2023-04-11T13:38:26.057Z,9.20
2023-04-11T13:39:28.201Z,10.13
2023-04-11T13:40:30.454Z,11.30
2023-04-11T13:41:32.826Z,9.90
2023-04-11T13:42:35.309Z,10.70
2023-04-11T13:43:37.438Z,9.70
2023-04-11T13:44:39.580Z,9.90
2023-04-11T13:45:41.805Z,11.00